Denmark, Iowa
Current Conditions -  °F | °C
As of 10:15 PM on Monday 22 Dec 2014 (Local Time) from KFSW Reporting Station
Light Rain Light Rain  
Wind Chill: 44°   Ceiling: 300
Heat Index: 46°   Visibility: 7mi
Dew Point: 46°   Wind: 6mph
Humidity: 100%   Direction: 150°SSE
Pressure: 29.47"   Gusts: NA
Location:  40.74°N, 91.34°W
Report Text: KFSW 230415Z AUTO 15005KT 7SM -RA OVC003 08/08 A2947 RMK AO2 P0003
Loading
Personal Weather Stations






























Interactive Weather Map New forecast layout! Learn more

10-Day Weather Forecast

Advertisements
Track Severe Weather on mobile